createdAt,value
2023-01-15T00:00:31.890Z,21.77
2023-01-15T00:03:30.762Z,44.17
2023-01-15T00:06:29.031Z,25.30
2023-01-15T00:09:27.868Z,36.03
2023-01-15T00:12:25.894Z,29.63
2023-01-15T00:15:23.674Z,35.93
2023-01-15T00:18:21.510Z,16.77
2023-01-15T00:21:20.369Z,31.27
2023-01-15T00:24:33.402Z,20.07
2023-01-15T00:27:46.345Z,36.53
2023-01-15T00:30:44.398Z,38.07
2023-01-15T00:33:42.224Z,29.10
2023-01-15T00:36:40.832Z,37.67
2023-01-15T00:39:38.703Z,32.57
2023-01-15T00:42:36.900Z,26.63
2023-01-15T00:45:34.610Z,25.63
2023-01-15T00:48:33.254Z,22.50
2023-01-15T00:51:31.657Z,22.50
2023-01-15T00:54:29.594Z,29.83
2023-01-15T00:57:27.377Z,34.10
2023-01-15T01:00:25.200Z,33.70
2023-01-15T01:03:24.099Z,25.73
2023-01-15T01:06:22.309Z,31.10
2023-01-15T01:09:20.094Z,36.53
2023-01-15T01:12:17.962Z,26.60
2023-01-15T01:15:15.691Z,22.70
2023-01-15T01:18:13.486Z,28.00
2023-01-15T01:21:11.205Z,25.03
2023-01-15T01:24:11.371Z,18.50
2023-01-15T01:27:09.155Z,14.57
2023-01-15T01:30:07.728Z,20.03
2023-01-15T01:33:05.981Z,15.93
2023-01-15T01:36:03.930Z,12.97
2023-01-15T01:39:02.756Z,25.87
2023-01-15T01:42:00.734Z,18.53
2023-01-15T01:45:03.002Z,17.57
2023-01-15T01:48:06.953Z,17.65
2023-01-15T01:51:06.491Z,21.63
2023-01-15T01:54:04.979Z,10.90
2023-01-15T01:57:03.621Z,7.27
2023-01-15T02:00:05.448Z,13.03
2023-01-15T02:03:05.683Z,22.97
2023-01-15T02:06:07.332Z,34.23
2023-01-15T02:09:06.271Z,25.50
2023-01-15T02:12:14.947Z,30.30
2023-01-15T02:15:24.374Z,21.73
2023-01-15T02:18:35.700Z,19.80
2023-01-15T02:21:54.104Z,12.13
2023-01-15T02:25:12.526Z,34.13
2023-01-15T02:28:27.946Z,43.63
2023-01-15T02:31:31.123Z,47.60
2023-01-15T02:37:33.438Z,34.37
2023-01-15T02:40:32.262Z,22.13
2023-01-15T02:43:36.359Z,25.93
2023-01-15T02:46:36.541Z,18.13
2023-01-15T02:49:36.396Z,26.30
2023-01-15T02:52:40.895Z,20.03
2023-01-15T02:55:43.829Z,22.90
2023-01-15T02:58:44.680Z,13.55
2023-01-15T03:01:48.616Z,19.73
2023-01-15T03:04:57.317Z,20.90
2023-01-15T03:07:59.397Z,17.37
2023-01-15T03:11:12.302Z,23.93
2023-01-15T03:14:31.651Z,15.57
2023-01-15T03:17:37.909Z,19.73
2023-01-15T03:20:38.596Z,9.10
2023-01-15T03:23:40.479Z,11.30
2023-01-15T03:26:38.320Z,12.37
2023-01-15T03:29:40.725Z,18.80
2023-01-15T03:32:39.103Z,18.83
2023-01-15T03:35:53.810Z,19.77
2023-01-15T03:38:52.498Z,14.90
2023-01-15T03:42:02.694Z,12.73
2023-01-15T03:45:26.841Z,9.93
2023-01-15T03:48:35.264Z,36.70
2023-01-15T03:51:50.152Z,19.43
2023-01-15T03:55:12.248Z,17.30
2023-01-15T03:58:19.568Z,23.42
2023-01-15T04:01:25.251Z,70.33
2023-01-15T04:04:24.797Z,63.47
2023-01-15T04:07:23.397Z,77.10
2023-01-15T04:10:21.455Z,51.77
2023-01-15T04:13:19.200Z,85.63
2023-01-15T04:16:26.517Z,103.47
2023-01-15T04:19:24.562Z,146.77
2023-01-15T04:22:22.426Z,208.43
2023-01-15T04:25:20.214Z,141.27
2023-01-15T04:28:18.161Z,162.13
2023-01-15T04:31:16.212Z,189.37
2023-01-15T04:34:14.134Z,178.73
2023-01-15T04:37:12.080Z,187.17
2023-01-15T04:40:10.928Z,193.63
2023-01-15T04:43:26.905Z,174.00
2023-01-15T04:46:25.998Z,155.57
2023-01-15T04:49:23.916Z,178.23
2023-01-15T04:52:21.789Z,192.60
2023-01-15T04:55:19.549Z,203.03
2023-01-15T04:58:17.373Z,205.90
2023-01-15T05:01:17.409Z,232.77
2023-01-15T05:04:15.675Z,212.47
2023-01-15T05:07:13.532Z,231.83
2023-01-15T05:10:11.840Z,198.33
2023-01-15T05:13:09.588Z,285.47
2023-01-15T05:16:10.493Z,254.37
2023-01-15T05:19:08.587Z,284.83
2023-01-15T05:22:06.710Z,287.30
2023-01-15T05:25:04.693Z,280.53
2023-01-15T05:28:02.724Z,342.37
2023-01-15T05:31:05.880Z,341.70
2023-01-15T05:34:03.911Z,330.05
2023-01-15T05:37:01.867Z,323.77
2023-01-15T05:39:59.780Z,349.27
2023-01-15T05:42:57.543Z,364.43
2023-01-15T05:45:55.564Z,317.07
2023-01-15T05:48:53.375Z,333.07
2023-01-15T05:51:52.873Z,384.87
2023-01-15T05:54:51.053Z,310.87
2023-01-15T05:57:49.762Z,327.13
2023-01-15T06:00:47.475Z,322.80
2023-01-15T06:03:45.461Z,360.33
2023-01-15T06:06:43.933Z,352.40
2023-01-15T06:09:41.786Z,358.03
2023-01-15T06:12:39.508Z,351.20
2023-01-15T06:15:37.727Z,362.87
2023-01-15T06:18:36.015Z,339.47
2023-01-15T06:21:35.736Z,310.47
2023-01-15T06:24:33.504Z,338.53
2023-01-15T06:27:31.380Z,332.27
2023-01-15T06:30:29.136Z,407.73
2023-01-15T06:33:27.037Z,386.83
2023-01-15T06:36:26.891Z,342.53
2023-01-15T06:39:24.791Z,362.80
2023-01-15T06:42:37.943Z,393.73
2023-01-15T06:45:56.283Z,408.50
2023-01-15T06:48:55.075Z,364.97
2023-01-15T06:51:52.897Z,387.27
2023-01-15T06:54:50.715Z,367.20
2023-01-15T06:57:48.640Z,390.43
2023-01-15T07:00:53.718Z,392.57
2023-01-15T07:03:51.623Z,381.37
2023-01-15T07:06:49.402Z,433.83
2023-01-15T07:09:47.492Z,407.97
2023-01-15T07:12:45.273Z,408.97
2023-01-15T07:15:43.180Z,388.30
2023-01-15T07:18:41.259Z,412.53
2023-01-15T07:21:40.643Z,423.47
2023-01-15T07:24:38.439Z,438.03
2023-01-15T07:27:36.330Z,427.20
2023-01-15T07:30:34.207Z,459.73
2023-01-15T07:33:32.223Z,464.70
2023-01-15T07:36:30.070Z,427.37
2023-01-15T07:39:28.989Z,383.30
2023-01-15T07:42:42.232Z,438.83
2023-01-15T07:45:56.676Z,423.93
2023-01-15T07:49:09.815Z,437.30
2023-01-15T07:52:07.778Z,415.17
2023-01-15T07:55:06.296Z,405.30
2023-01-15T07:58:04.576Z,413.97
2023-01-15T08:01:02.483Z,368.27
2023-01-15T08:04:04.072Z,351.77
2023-01-15T08:07:03.087Z,346.80
2023-01-15T08:10:00.946Z,363.17
2023-01-15T08:13:14.112Z,345.80
2023-01-15T08:16:12.591Z,342.57
2023-01-15T08:19:10.354Z,309.77
2023-01-15T08:22:08.286Z,374.97
2023-01-15T08:25:07.222Z,325.60
2023-01-15T08:28:05.293Z,301.87
2023-01-15T08:31:03.014Z,303.97
2023-01-15T08:34:02.697Z,364.30
2023-01-15T08:37:00.547Z,325.10
2023-01-15T08:39:58.467Z,362.93
2023-01-15T08:42:56.711Z,352.43
2023-01-15T08:45:58.562Z,396.10
2023-01-15T08:48:56.475Z,394.93
2023-01-15T08:51:54.566Z,346.57
2023-01-15T08:54:52.287Z,364.20
2023-01-15T08:57:50.274Z,367.03
2023-01-15T09:00:49.099Z,349.10
2023-01-15T09:03:49.801Z,354.40
2023-01-15T09:06:49.264Z,348.63
2023-01-15T09:09:47.162Z,373.90
2023-01-15T09:12:45.067Z,375.03
2023-01-15T09:15:43.323Z,351.00
2023-01-15T09:18:41.882Z,397.57
2023-01-15T09:21:39.868Z,376.00
2023-01-15T09:24:37.605Z,404.93
2023-01-15T09:27:35.573Z,369.00
2023-01-15T09:30:34.069Z,392.73
2023-01-15T09:33:31.987Z,377.37
2023-01-15T09:36:33.387Z,356.43
2023-01-15T09:39:31.328Z,385.43
2023-01-15T09:42:53.376Z,350.87
2023-01-15T09:45:57.946Z,324.48
2023-01-15T09:49:15.301Z,369.73
2023-01-15T09:52:26.271Z,364.77
2023-01-15T09:55:39.192Z,348.50
2023-01-15T09:58:40.049Z,366.05
2023-01-15T10:01:38.276Z,400.17
2023-01-15T10:04:43.581Z,353.10
2023-01-15T10:07:59.356Z,378.93
2023-01-15T10:11:03.593Z,382.67
2023-01-15T10:14:07.155Z,355.87
2023-01-15T10:17:05.437Z,371.67
2023-01-15T10:20:03.887Z,348.40
2023-01-15T10:23:23.370Z,382.37
2023-01-15T10:26:40.082Z,384.77
2023-01-15T10:29:50.173Z,357.27
2023-01-15T10:33:02.513Z,367.37
2023-01-15T10:36:12.178Z,367.05
2023-01-15T10:39:32.125Z,366.47
2023-01-15T10:42:56.569Z,369.23
2023-01-15T10:46:00.750Z,373.50
2023-01-15T10:49:04.564Z,367.80
2023-01-15T10:52:20.141Z,361.83
2023-01-15T10:55:28.669Z,396.80
2023-01-15T10:58:40.804Z,372.00
2023-01-15T11:01:40.828Z,389.67
2023-01-15T11:04:38.976Z,425.63
2023-01-15T11:08:03.274Z,372.90
2023-01-15T11:11:18.981Z,374.23
2023-01-15T11:14:32.208Z,360.13
2023-01-15T11:17:53.784Z,379.23
2023-01-15T11:20:51.917Z,381.37
2023-01-15T11:23:51.121Z,411.67
2023-01-15T11:26:52.390Z,392.70
2023-01-15T11:30:00.188Z,359.40
2023-01-15T11:33:00.465Z,366.20
2023-01-15T11:36:01.403Z,368.07
2023-01-15T11:38:59.822Z,355.20
2023-01-15T11:42:18.740Z,332.67
2023-01-15T11:45:34.642Z,348.47
2023-01-15T11:48:59.317Z,349.80
2023-01-15T11:51:59.349Z,375.50
2023-01-15T11:54:57.703Z,338.70
2023-01-15T11:57:58.127Z,355.87
2023-01-15T12:00:58.338Z,336.70
2023-01-15T12:03:57.255Z,344.43
2023-01-15T12:06:55.551Z,321.63
2023-01-15T12:10:15.636Z,323.43
2023-01-15T12:13:38.888Z,318.00
2023-01-15T12:16:57.354Z,297.63
2023-01-15T12:20:15.081Z,320.57
2023-01-15T12:23:42.433Z,309.90
2023-01-15T12:27:06.376Z,302.10
2023-01-15T12:30:22.588Z,298.37
2023-01-15T12:33:46.593Z,309.03
2023-01-15T12:36:53.531Z,293.73
2023-01-15T12:40:14.092Z,313.50
2023-01-15T12:43:35.712Z,309.57
2023-01-15T12:46:35.375Z,277.73
2023-01-15T12:49:41.411Z,308.43
2023-01-15T12:52:44.424Z,279.53
2023-01-15T12:56:02.981Z,279.23
2023-01-15T12:59:21.777Z,250.53
2023-01-15T13:02:25.022Z,266.77
2023-01-15T13:08:34.097Z,216.63
2023-01-15T13:11:32.576Z,305.50
2023-01-15T13:14:36.819Z,259.33
2023-01-15T13:17:55.856Z,259.43
2023-01-15T13:20:56.469Z,258.33
2023-01-15T13:24:20.512Z,236.40
2023-01-15T13:27:48.914Z,281.00
2023-01-15T13:31:01.581Z,243.90
2023-01-15T13:34:07.598Z,229.02
2023-01-15T13:37:26.368Z,242.20
2023-01-15T13:40:30.214Z,217.63
2023-01-15T13:43:35.680Z,240.27
2023-01-15T13:46:33.729Z,237.50
2023-01-15T13:49:36.534Z,235.60
2023-01-15T13:52:36.861Z,240.57
2023-01-15T13:55:39.347Z,248.30
2023-01-15T13:58:43.440Z,229.98
2023-01-15T14:01:41.327Z,257.03
2023-01-15T14:04:40.450Z,208.50
2023-01-15T14:07:39.159Z,206.50
2023-01-15T14:10:39.985Z,211.90
2023-01-15T14:13:53.142Z,191.50
2023-01-15T14:17:13.263Z,196.07
2023-01-15T14:20:35.416Z,191.97
2023-01-15T14:23:57.174Z,185.63
2023-01-15T14:27:22.827Z,202.50
2023-01-15T14:30:51.441Z,185.97
2023-01-15T14:34:14.056Z,233.67
2023-01-15T14:37:30.256Z,228.20
2023-01-15T14:40:32.777Z,225.20
2023-01-15T14:43:34.543Z,239.77
2023-01-15T14:46:34.887Z,190.20
2023-01-15T14:49:43.817Z,205.10
2023-01-15T14:52:46.158Z,214.30
2023-01-15T14:55:57.061Z,220.57
2023-01-15T14:59:09.370Z,192.27
2023-01-15T15:02:19.254Z,236.82
2023-01-15T15:05:19.361Z,236.10
2023-01-15T15:08:19.693Z,218.23
2023-01-15T15:11:41.124Z,349.80
2023-01-15T15:14:40.428Z,316.87
2023-01-15T15:17:57.176Z,283.63
2023-01-15T15:21:18.223Z,249.70
2023-01-15T15:24:26.350Z,186.80
2023-01-15T15:27:25.286Z,236.23
2023-01-15T15:30:23.305Z,267.30
2023-01-15T15:33:25.716Z,233.33
2023-01-15T15:36:28.090Z,255.63
2023-01-15T15:39:51.412Z,238.98
2023-01-15T15:43:31.627Z,249.60
2023-01-15T15:46:47.633Z,208.33
2023-01-15T15:49:45.431Z,198.20
2023-01-15T15:52:46.586Z,207.67
2023-01-15T15:55:46.259Z,198.63
2023-01-15T15:58:44.586Z,180.80
2023-01-15T16:01:42.545Z,209.00
2023-01-15T16:04:46.594Z,172.37
2023-01-15T16:07:44.629Z,153.80
2023-01-15T16:10:42.689Z,129.40
2023-01-15T16:13:44.861Z,120.77
2023-01-15T16:16:43.918Z,110.47
2023-01-15T16:19:51.090Z,130.10
2023-01-15T16:22:55.839Z,115.37
2023-01-15T16:26:02.734Z,97.67
2023-01-15T16:29:04.971Z,95.50
2023-01-15T16:32:12.576Z,94.53
2023-01-15T16:35:21.691Z,69.07
2023-01-15T16:38:21.398Z,75.73
2023-01-15T16:41:21.992Z,79.13
2023-01-15T16:44:37.951Z,90.07
2023-01-15T16:47:36.932Z,71.40
2023-01-15T16:50:36.236Z,57.43
2023-01-15T16:53:42.057Z,66.33
2023-01-15T16:56:55.200Z,51.73
2023-01-15T17:00:00.358Z,64.07
2023-01-15T17:02:58.341Z,84.87
2023-01-15T17:06:01.777Z,102.90
2023-01-15T17:08:59.930Z,86.33
2023-01-15T17:11:57.949Z,81.40
2023-01-15T17:14:59.147Z,103.70
2023-01-15T17:17:57.788Z,92.03
2023-01-15T17:20:58.782Z,95.63
2023-01-15T17:24:00.537Z,115.57
2023-01-15T17:26:58.330Z,109.57
2023-01-15T17:29:57.224Z,117.23
2023-01-15T17:32:54.978Z,122.63
2023-01-15T17:35:54.222Z,115.17
2023-01-15T17:38:52.568Z,103.80
2023-01-15T17:41:50.423Z,129.20
2023-01-15T17:44:48.291Z,106.53
2023-01-15T17:47:46.408Z,125.70
2023-01-15T17:50:44.515Z,106.90
2023-01-15T17:53:42.877Z,105.30
2023-01-15T17:56:56.068Z,132.67
2023-01-15T18:00:09.712Z,117.93
2023-01-15T18:03:32.586Z,89.37
2023-01-15T18:06:34.991Z,106.70
2023-01-15T18:09:35.408Z,97.90
2023-01-15T18:12:33.417Z,73.93
2023-01-15T18:15:31.614Z,69.93
2023-01-15T18:18:29.823Z,73.87
2023-01-15T18:21:28.294Z,45.73
2023-01-15T18:24:26.425Z,39.20
2023-01-15T18:27:31.375Z,54.97
2023-01-15T18:30:30.351Z,32.73
2023-01-15T18:33:28.198Z,37.27
2023-01-15T18:36:26.355Z,57.90
2023-01-15T18:39:24.196Z,46.33
2023-01-15T18:42:37.364Z,46.30
2023-01-15T18:45:50.634Z,47.57
2023-01-15T18:48:48.589Z,40.50
2023-01-15T18:52:06.246Z,49.47
2023-01-15T18:55:05.165Z,47.63
2023-01-15T18:58:03.281Z,53.77
2023-01-15T19:01:09.259Z,35.53
2023-01-15T19:04:09.282Z,98.43
2023-01-15T19:07:08.580Z,106.47
2023-01-15T19:10:07.050Z,82.43
2023-01-15T19:13:06.614Z,86.40
2023-01-15T19:16:22.242Z,78.20
2023-01-15T19:19:20.326Z,91.63
2023-01-15T19:22:33.629Z,45.67
2023-01-15T19:25:40.104Z,50.53
2023-01-15T19:28:37.924Z,49.17
2023-01-15T19:37:58.464Z,52.43
2023-01-15T19:41:17.221Z,50.53
2023-01-15T19:44:30.950Z,34.93
2023-01-15T19:47:50.663Z,41.00
2023-01-15T19:50:48.723Z,38.43
2023-01-15T19:53:46.486Z,34.03
2023-01-15T19:56:44.329Z,40.23
2023-01-15T19:59:48.424Z,36.77
2023-01-15T20:02:47.008Z,39.87
2023-01-15T20:05:45.480Z,60.93
2023-01-15T20:08:43.515Z,52.00
2023-01-15T20:11:59.394Z,81.03
2023-01-15T20:14:57.406Z,68.67
2023-01-15T20:17:55.555Z,80.37
2023-01-15T20:20:56.910Z,63.47
2023-01-15T20:23:54.698Z,44.63
2023-01-15T20:26:56.736Z,37.70
2023-01-15T20:30:00.597Z,58.40
2023-01-15T20:33:00.394Z,53.93
2023-01-15T20:36:02.246Z,45.07
2023-01-15T20:39:00.271Z,44.83
2023-01-15T20:42:13.953Z,36.07
2023-01-15T20:45:12.476Z,48.17
2023-01-15T20:48:20.820Z,59.90
2023-01-15T20:51:20.434Z,51.40
2023-01-15T20:54:18.533Z,60.87
2023-01-15T20:57:16.417Z,43.43
2023-01-15T21:00:19.789Z,33.30
2023-01-15T21:03:17.877Z,39.20
2023-01-15T21:06:15.796Z,32.43
2023-01-15T21:09:13.698Z,35.77
2023-01-15T21:12:11.453Z,41.77
2023-01-15T21:15:09.886Z,42.00
2023-01-15T21:18:07.649Z,41.30
2023-01-15T21:21:10.380Z,28.67
2023-01-15T21:24:08.309Z,50.05
2023-01-15T21:27:06.457Z,57.17
2023-01-15T21:30:07.328Z,41.93
2023-01-15T21:33:07.504Z,35.17
2023-01-15T21:36:09.566Z,42.77
2023-01-15T21:39:07.520Z,55.00
2023-01-15T21:42:20.739Z,36.43
2023-01-15T21:45:18.783Z,41.93
2023-01-15T21:48:16.714Z,42.97
2023-01-15T21:51:14.579Z,35.93
2023-01-15T21:54:12.329Z,32.00
2023-01-15T21:57:10.841Z,32.97
2023-01-15T22:00:10.996Z,37.90
2023-01-15T22:03:10.742Z,30.33
2023-01-15T22:06:10.251Z,26.00
2023-01-15T22:09:08.267Z,37.73
2023-01-15T22:12:06.618Z,45.93
2023-01-15T22:15:05.682Z,36.03
2023-01-15T22:18:03.574Z,43.27
2023-01-15T22:21:05.053Z,37.87
2023-01-15T22:24:04.339Z,47.73
2023-01-15T22:27:03.837Z,37.23
2023-01-15T22:30:01.990Z,35.40
2023-01-15T22:33:01.191Z,30.00
2023-01-15T22:36:00.500Z,43.40
2023-01-15T22:38:58.383Z,34.50
2023-01-15T22:42:11.643Z,35.80
2023-01-15T22:45:09.818Z,41.23
2023-01-15T22:48:07.779Z,57.03
2023-01-15T22:51:06.659Z,60.57
2023-01-15T22:54:05.153Z,49.13
2023-01-15T22:57:03.151Z,61.67
2023-01-15T23:00:00.976Z,27.43
2023-01-15T23:03:05.783Z,55.53
2023-01-15T23:06:06.351Z,47.37
2023-01-15T23:09:04.568Z,46.83
2023-01-15T23:12:02.431Z,42.83
2023-01-15T23:15:00.437Z,32.73
2023-01-15T23:17:58.222Z,22.53
2023-01-15T23:20:56.101Z,24.60
2023-01-15T23:23:55.798Z,31.93
2023-01-15T23:26:53.688Z,26.13
2023-01-15T23:29:51.507Z,21.50
2023-01-15T23:32:49.634Z,21.00
2023-01-15T23:35:47.500Z,40.63
2023-01-15T23:38:47.286Z,114.80
2023-01-15T23:42:00.286Z,156.37
2023-01-15T23:45:13.391Z,133.03
2023-01-15T23:48:11.107Z,203.70
2023-01-15T23:51:09.108Z,192.20
2023-01-15T23:54:08.968Z,192.90
2023-01-15T23:57:09.193Z,310.90
